Time;durP1;ratioP1;P1;durP2;ratioP2;P2;SDS_P1;SDS_P2;PMS_P1;PMS_P2;Temp;Humidity;BMP_temperature;BMP_pressure;BME280_temperature;BME280_humidity;BME280_pressure;Samples;Min_cycle;Max_cycle;Signal;HPM_P1;HPM_P2
2022/04/19 00:00:33;;;;;;;2.33;1.75;;;;;;;;;;5055717;28;20703;-71
2022/04/19 00:03:00;;;;;;;4.35;2.08;;;;;;;;;;5056036;28;20573;-71
2022/04/19 00:05:26;;;;;;;4.38;2.13;;;;;;;;;;5055901;28;20196;-72
2022/04/19 00:07:53;;;;;;;3.10;1.83;;;;;;;;;;5056070;28;20196;-71
2022/04/19 00:10:18;;;;;;;3.30;2.00;;;;;;;;;;5055681;28;20194;-72
2022/04/19 00:12:45;;;;;;;8.40;1.60;;;;;;;;;;5054822;28;20205;-72
2022/04/19 00:15:11;;;;;;;7.82;1.70;;;;;;;;;;5054604;28;20426;-72
2022/04/19 00:17:38;;;;;;;2.88;2.45;;;;;;;;;;5055888;28;20176;-71
2022/04/19 00:20:04;;;;;;;2.13;1.90;;;;;;;;;;5055778;28;20549;-72
2022/04/19 00:22:30;;;;;;;3.05;2.20;;;;;;;;;;5054207;28;20193;-73
2022/04/19 00:24:56;;;;;;;6.90;2.35;;;;;;;;;;5055757;28;20184;-73
2022/04/19 00:27:23;;;;;;;2.30;2.10;;;;;;;;;;5055576;28;20165;-73
2022/04/19 00:29:49;;;;;;;3.00;2.20;;;;;;;;;;5055492;28;20205;-72
2022/04/19 00:32:15;;;;;;;3.50;1.80;;;;;;;;;;5055111;28;20669;-72
2022/04/19 00:34:41;;;;;;;3.47;1.92;;;;;;;;;;5055489;28;20359;-74
2022/04/19 00:37:08;;;;;;;2.95;2.10;;;;;;;;;;5055289;28;20183;-73
2022/04/19 00:39:34;;;;;;;3.20;1.52;;;;;;;;;;5055491;28;20188;-71
2022/04/19 00:42:00;;;;;;;3.00;1.90;;;;;;;;;;5054969;28;20552;-73
2022/04/19 00:44:26;;;;;;;4.20;1.80;;;;;;;;;;5055279;28;20403;-73
2022/04/19 00:46:53;;;;;;;3.10;1.95;;;;;;;;;;5053979;28;20182;-73
2022/04/19 00:49:19;;;;;;;3.75;2.15;;;;;;;;;;5055189;28;20565;-72
2022/04/19 00:51:45;;;;;;;1.90;1.60;;;;;;;;;;5054798;28;20201;-72
2022/04/19 00:54:15;;;;;;;4.55;1.90;;;;;;;;;;5053776;28;20543;-72
2022/04/19 00:56:41;;;;;;;2.70;2.10;;;;;;;;;;5054931;28;20176;-72
2022/04/19 00:59:11;;;;;;;3.67;2.00;;;;;;;;;;5055199;28;20196;-73
2022/04/19 01:01:39;;;;;;;2.22;1.50;;;;;;;;;;5054684;28;20427;-72
2022/04/19 01:04:05;;;;;;;2.92;2.20;;;;;;;;;;5054978;28;20178;-72
2022/04/19 01:06:31;;;;;;;2.47;2.00;;;;;;;;;;5054855;28;20180;-73
2022/04/19 01:08:58;;;;;;;7.33;2.20;;;;;;;;;;5054807;28;20631;-74
2022/04/19 01:14:08;;;;;;;4.82;1.90;;;;;;;;;;5054825;28;20254;-72
2022/04/19 01:16:34;;;;;;;2.70;2.10;;;;;;;;;;5054609;28;20183;-73
2022/04/19 01:19:01;;;;;;;2.90;2.20;;;;;;;;;;5054433;28;20406;-72
2022/04/19 01:21:42;;;;;;;3.20;2.22;;;;;;;;;;5054080;28;20227;-72
2022/04/19 01:24:09;;;;;;;3.08;2.30;;;;;;;;;;5054758;28;20182;-71
2022/04/19 01:26:34;;;;;;;3.30;2.15;;;;;;;;;;5054562;28;20549;-73
2022/04/19 01:29:01;;;;;;;2.97;2.17;;;;;;;;;;5053053;28;20179;-73
2022/04/19 01:31:27;;;;;;;2.83;2.10;;;;;;;;;;5052618;28;20479;-71
2022/04/19 01:33:55;;;;;;;4.57;2.60;;;;;;;;;;5054374;28;20209;-72
2022/04/19 01:36:21;;;;;;;2.20;1.85;;;;;;;;;;5054219;28;20229;-72
2022/04/19 01:38:48;;;;;;;2.20;1.93;;;;;;;;;;5054259;28;20265;-71
2022/04/19 01:41:14;;;;;;;2.45;2.05;;;;;;;;;;5052383;28;20805;-71
2022/04/19 01:43:41;;;;;;;2.10;1.83;;;;;;;;;;5054033;28;20189;-70
2022/04/19 01:46:07;;;;;;;3.05;1.95;;;;;;;;;;5054404;28;20545;-73
2022/04/19 01:48:33;;;;;;;3.30;2.08;;;;;;;;;;5052889;28;20182;-72
2022/04/19 01:50:59;;;;;;;2.27;1.90;;;;;;;;;;5053834;28;20194;-70
2022/04/19 01:53:27;;;;;;;2.50;2.10;;;;;;;;;;5053758;28;20455;-73
2022/04/19 01:55:52;;;;;;;2.85;2.10;;;;;;;;;;5054148;28;20822;-71
2022/04/19 01:58:18;;;;;;;2.20;2.00;;;;;;;;;;5053663;28;20201;-73
2022/04/19 02:00:44;;;;;;;2.13;1.93;;;;;;;;;;5053510;28;20756;-73
2022/04/19 02:03:10;;;;;;;2.70;2.10;;;;;;;;;;5052569;28;20497;-74
2022/04/19 02:05:36;;;;;;;3.23;2.47;;;;;;;;;;5053659;28;20416;-72
2022/04/19 02:08:02;;;;;;;2.60;2.38;;;;;;;;;;5053854;28;20422;-71
2022/04/19 02:10:28;;;;;;;3.35;2.20;;;;;;;;;;5053283;28;20191;-72
2022/04/19 02:12:54;;;;;;;2.70;2.13;;;;;;;;;;5053686;28;20556;-71
2022/04/19 02:15:21;;;;;;;2.40;1.50;;;;;;;;;;5053780;28;20402;-71
2022/04/19 02:17:49;;;;;;;2.53;2.33;;;;;;;;;;5052453;28;20786;-73
2022/04/19 02:20:16;;;;;;;3.28;2.53;;;;;;;;;;5053356;28;20173;-72
2022/04/19 02:22:42;;;;;;;2.55;2.33;;;;;;;;;;5053584;28;20190;-73
2022/04/19 02:25:09;;;;;;;2.33;2.13;;;;;;;;;;5053508;28;20177;-71
2022/04/19 02:27:35;;;;;;;3.10;2.45;;;;;;;;;;5053381;28;20178;-73
2022/04/19 02:30:05;;;;;;;4.60;2.83;;;;;;;;;;5052069;28;20180;-72
2022/04/19 02:32:31;;;;;;;5.47;2.17;;;;;;;;;;5051724;28;20195;-74
2022/04/19 02:34:57;;;;;;;2.60;2.03;;;;;;;;;;5053409;28;20225;-73
2022/04/19 02:37:23;;;;;;;2.38;1.77;;;;;;;;;;5053318;28;20240;-70
2022/04/19 02:39:50;;;;;;;3.27;2.17;;;;;;;;;;5053012;28;20177;-72
2022/04/19 02:42:17;;;;;;;3.60;2.35;;;;;;;;;;5052863;28;20800;-73
2022/04/19 02:44:43;;;;;;;5.22;2.50;;;;;;;;;;5053155;28;20211;-73
2022/04/19 02:47:09;;;;;;;2.78;2.35;;;;;;;;;;5053198;28;20176;-71
2022/04/19 02:49:36;;;;;;;3.38;2.08;;;;;;;;;;5053078;28;20177;-72
2022/04/19 02:52:03;;;;;;;2.60;2.40;;;;;;;;;;5052601;28;20220;-72
2022/04/19 02:54:29;;;;;;;3.17;2.00;;;;;;;;;;5053083;28;20197;-72
2022/04/19 02:56:55;;;;;;;4.10;2.30;;;;;;;;;;5053252;28;20168;-73
2022/04/19 02:59:21;;;;;;;3.97;2.35;;;;;;;;;;5053029;28;20401;-73
2022/04/19 03:01:48;;;;;;;2.83;2.25;;;;;;;;;;5052537;28;20284;-73
2022/04/19 03:04:14;;;;;;;4.65;2.72;;;;;;;;;;5052890;28;20547;-73
2022/04/19 03:06:40;;;;;;;4.10;2.57;;;;;;;;;;5053065;28;20177;-73
2022/04/19 03:09:06;;;;;;;2.45;1.95;;;;;;;;;;5054266;28;20424;-71
2022/04/19 03:11:32;;;;;;;2.73;2.30;;;;;;;;;;5056753;28;20220;-71
2022/04/19 03:13:58;;;;;;;4.95;2.33;;;;;;;;;;5056778;28;20468;-70
2022/04/19 03:16:24;;;;;;;5.82;2.25;;;;;;;;;;5055832;28;20252;-72
2022/04/19 03:18:50;;;;;;;4.53;2.45;;;;;;;;;;5056972;28;20253;-72
2022/04/19 03:21:16;;;;;;;4.30;2.53;;;;;;;;;;5056514;28;20620;-71
2022/04/19 03:29:11;;;;;;;4.88;2.70;;;;;;;;;;5056134;28;20269;-72
2022/04/19 03:31:38;;;;;;;6.65;2.75;;;;;;;;;;5056400;28;20569;-72
2022/04/19 03:34:04;;;;;;;3.40;2.70;;;;;;;;;;5056381;28;20290;-74
2022/04/19 03:36:31;;;;;;;3.55;2.90;;;;;;;;;;5056529;28;20543;-72
2022/04/19 03:38:58;;;;;;;9.00;3.17;;;;;;;;;;5056555;28;20265;-72
2022/04/19 03:41:24;;;;;;;4.05;3.00;;;;;;;;;;5056029;28;20220;-72
2022/04/19 03:43:51;;;;;;;8.43;2.90;;;;;;;;;;5056409;28;20187;-73
2022/04/19 03:46:17;;;;;;;3.38;2.50;;;;;;;;;;5056228;28;20428;-72
2022/04/19 03:48:43;;;;;;;5.65;3.17;;;;;;;;;;5056275;28;20177;-73
2022/04/19 03:51:09;;;;;;;3.37;3.07;;;;;;;;;;5055996;28;20303;-73
2022/04/19 03:53:35;;;;;;;6.77;3.00;;;;;;;;;;5056303;28;20466;-73
2022/04/19 03:56:03;;;;;;;5.90;3.40;;;;;;;;;;5056244;28;20495;-73
2022/04/19 03:58:32;;;;;;;4.25;3.00;;;;;;;;;;5056077;28;20877;-73
2022/04/19 04:00:58;;;;;;;4.43;3.20;;;;;;;;;;5055809;28;20682;-72
2022/04/19 04:03:25;;;;;;;5.20;3.30;;;;;;;;;;5056103;28;20193;-72
2022/04/19 04:05:51;;;;;;;4.15;3.40;;;;;;;;;;5056081;28;20172;-73
2022/04/19 04:08:17;;;;;;;5.95;3.90;;;;;;;;;;5055867;28;20671;-71
2022/04/19 04:10:43;;;;;;;4.25;3.83;;;;;;;;;;5055477;28;20196;-73
2022/04/19 04:13:09;;;;;;;4.93;3.67;;;;;;;;;;5055826;28;20198;-72
2022/04/19 04:15:35;;;;;;;3.45;2.78;;;;;;;;;;5055841;28;20650;-71
2022/04/19 04:18:01;;;;;;;4.70;3.53;;;;;;;;;;5055893;28;20185;-72
2022/04/19 04:20:27;;;;;;;4.65;3.83;;;;;;;;;;5055435;28;20539;-72
2022/04/19 04:22:53;;;;;;;6.22;3.78;;;;;;;;;;5055581;28;20197;-73
2022/04/19 04:25:19;;;;;;;3.67;3.30;;;;;;;;;;5055841;28;20190;-72
2022/04/19 04:27:45;;;;;;;6.13;3.58;;;;;;;;;;5055657;28;20402;-73
2022/04/19 04:30:11;;;;;;;5.70;3.97;;;;;;;;;;5055151;28;20240;-72
2022/04/19 04:32:38;;;;;;;4.35;3.35;;;;;;;;;;5055383;28;20455;-72
2022/04/19 04:35:04;;;;;;;13.75;3.67;;;;;;;;;;5055473;28;20170;-72
2022/04/19 04:37:30;;;;;;;14.43;4.30;;;;;;;;;;5055471;28;20573;-71
2022/04/19 04:39:56;;;;;;;12.93;4.57;;;;;;;;;;5055436;28;20205;-70
2022/04/19 04:42:22;;;;;;;9.27;4.25;;;;;;;;;;5054860;28;20928;-70
2022/04/19 04:44:48;;;;;;;8.03;4.50;;;;;;;;;;5055046;28;20189;-73
2022/04/19 04:50:02;;;;;;;11.75;4.38;;;;;;;;;;5055549;28;20411;-73
2022/04/19 04:52:28;;;;;;;15.55;4.30;;;;;;;;;;5054631;28;20278;-73
2022/04/19 04:54:54;;;;;;;7.37;3.70;;;;;;;;;;5054856;28;20240;-73
2022/04/19 04:57:19;;;;;;;9.10;3.83;;;;;;;;;;5054969;28;20420;-73
2022/04/19 04:59:48;;;;;;;5.70;3.73;;;;;;;;;;5054967;28;20404;-71
2022/04/19 05:02:14;;;;;;;5.65;4.13;;;;;;;;;;5054528;28;20511;-73
2022/04/19 05:04:40;;;;;;;6.30;4.22;;;;;;;;;;5054780;28;20182;-73
2022/04/19 05:07:06;;;;;;;8.05;3.63;;;;;;;;;;5054730;28;20175;-71
2022/04/19 05:09:32;;;;;;;3.65;3.30;;;;;;;;;;5054903;28;20240;-73
2022/04/19 05:11:58;;;;;;;8.13;4.03;;;;;;;;;;5054449;28;20202;-72
2022/04/19 05:14:24;;;;;;;7.40;3.63;;;;;;;;;;5054675;28;20620;-72
2022/04/19 05:16:50;;;;;;;8.25;4.30;;;;;;;;;;5054736;28;20402;-73
2022/04/19 05:19:16;;;;;;;5.22;3.95;;;;;;;;;;5053209;28;20174;-72
2022/04/19 05:21:42;;;;;;;5.60;4.40;;;;;;;;;;5054103;28;20194;-71
2022/04/19 05:24:09;;;;;;;4.68;3.92;;;;;;;;;;5054624;28;20187;-73
2022/04/19 05:26:35;;;;;;;5.78;4.70;;;;;;;;;;5054463;28;20170;-72
2022/04/19 05:29:01;;;;;;;5.78;4.88;;;;;;;;;;5054440;28;20268;-71
2022/04/19 05:31:27;;;;;;;7.43;4.80;;;;;;;;;;5053336;28;20242;-73
2022/04/19 05:33:53;;;;;;;7.50;4.73;;;;;;;;;;5054533;28;20248;-74
2022/04/19 05:36:19;;;;;;;9.00;4.07;;;;;;;;;;5054419;28;20405;-71
2022/04/19 05:38:45;;;;;;;7.60;4.57;;;;;;;;;;5054191;28;20164;-73
2022/04/19 05:41:12;;;;;;;8.90;5.77;;;;;;;;;;5053478;28;20602;-73
2022/04/19 05:43:38;;;;;;;7.38;5.38;;;;;;;;;;5054059;28;20406;-72
2022/04/19 05:46:04;;;;;;;6.38;5.22;;;;;;;;;;5053951;28;20202;-71
2022/04/19 05:48:30;;;;;;;7.47;4.95;;;;;;;;;;5053966;28;20178;-73
2022/04/19 05:50:56;;;;;;;8.17;5.87;;;;;;;;;;5053540;28;20599;-72
2022/04/19 05:53:22;;;;;;;15.47;5.13;;;;;;;;;;5053678;28;20453;-72
2022/04/19 05:55:48;;;;;;;7.50;5.45;;;;;;;;;;5053887;28;20406;-72
2022/04/19 05:58:14;;;;;;;8.65;4.95;;;;;;;;;;5054268;28;20253;-73
2022/04/19 06:00:40;;;;;;;12.38;5.15;;;;;;;;;;5053677;28;20197;-73
2022/04/19 06:05:51;;;;;;;11.82;6.68;;;;;;;;;;5053936;28;20197;-72
2022/04/19 06:08:17;;;;;;;7.10;5.45;;;;;;;;;;5053783;28;20190;-73
2022/04/19 06:10:43;;;;;;;4.97;4.17;;;;;;;;;;5051983;28;20577;-73
2022/04/19 06:13:09;;;;;;;6.47;5.33;;;;;;;;;;5053603;28;20502;-72
2022/04/19 06:15:37;;;;;;;7.00;5.30;;;;;;;;;;5053502;28;20460;-74
2022/04/19 06:18:03;;;;;;;6.63;5.55;;;;;;;;;;5053588;28;20404;-72
2022/04/19 06:20:29;;;;;;;8.40;5.45;;;;;;;;;;5053103;28;20237;-73
2022/04/19 06:22:55;;;;;;;6.63;5.00;;;;;;;;;;5053519;28;20201;-72
2022/04/19 06:25:21;;;;;;;9.00;4.80;;;;;;;;;;5053580;28;20180;-71
2022/04/19 06:27:47;;;;;;;7.38;4.93;;;;;;;;;;5053228;28;20509;-72
2022/04/19 06:30:14;;;;;;;8.15;5.10;;;;;;;;;;5053250;28;20180;-73
2022/04/19 06:32:41;;;;;;;5.43;4.70;;;;;;;;;;5053112;28;20201;-71
2022/04/19 06:35:08;;;;;;;5.93;5.00;;;;;;;;;;5053421;28;20182;-72
2022/04/19 06:37:35;;;;;;;8.60;5.53;;;;;;;;;;5053162;28;20271;-71
2022/04/19 06:40:01;;;;;;;7.53;4.82;;;;;;;;;;5053164;28;20182;-72
2022/04/19 06:42:28;;;;;;;7.05;5.95;;;;;;;;;;5052614;28;20267;-73
2022/04/19 06:44:54;;;;;;;8.35;4.80;;;;;;;;;;5052422;28;20232;-73
2022/04/19 06:47:20;;;;;;;12.73;5.93;;;;;;;;;;5053250;28;20185;-74
2022/04/19 06:49:46;;;;;;;7.90;5.30;;;;;;;;;;5052955;28;20430;-73
2022/04/19 06:52:12;;;;;;;7.17;5.27;;;;;;;;;;5052659;28;20434;-74
2022/04/19 06:54:38;;;;;;;6.45;5.05;;;;;;;;;;5052998;28;20499;-73
2022/04/19 06:57:05;;;;;;;7.50;5.80;;;;;;;;;;5053137;28;20232;-74
2022/04/19 06:59:31;;;;;;;8.65;5.18;;;;;;;;;;5052922;28;20412;-74
2022/04/19 07:01:57;;;;;;;5.93;4.47;;;;;;;;;;5052512;28;20640;-73
2022/04/19 07:04:23;;;;;;;6.93;5.97;;;;;;;;;;5052850;28;20207;-73
2022/04/19 07:06:49;;;;;;;7.63;4.67;;;;;;;;;;5053008;28;20208;-74
2022/04/19 07:09:15;;;;;;;6.40;4.40;;;;;;;;;;5052853;28;20424;-74
2022/04/19 07:11:41;;;;;;;5.70;5.07;;;;;;;;;;5052512;28;20230;-74
2022/04/19 07:14:07;;;;;;;7.10;5.10;;;;;;;;;;5053052;28;20263;-73
2022/04/19 07:16:33;;;;;;;7.45;5.78;;;;;;;;;;5053130;28;20933;-72
2022/04/19 07:18:59;;;;;;;8.45;5.18;;;;;;;;;;5053132;28;20178;-74
2022/04/19 07:26:54;;;;;;;6.28;4.68;;;;;;;;;;5053196;28;20185;-74
2022/04/19 07:29:20;;;;;;;6.20;4.65;;;;;;;;;;5052807;28;20299;-73
2022/04/19 07:31:47;;;;;;;6.03;4.07;;;;;;;;;;5052267;28;20236;-72
2022/04/19 07:34:14;;;;;;;6.03;4.60;;;;;;;;;;5052505;28;20209;-72
2022/04/19 07:36:40;;;;;;;7.70;3.97;;;;;;;;;;5052753;28;20749;-74
2022/04/19 07:39:07;;;;;;;4.63;3.70;;;;;;;;;;5052802;28;20216;-72
2022/04/19 07:41:55;;;;;;;4.82;3.80;;;;;;;;;;5052335;28;20481;-73
2022/04/19 07:44:20;;;;;;;5.40;3.83;;;;;;;;;;5052482;28;20197;-72
2022/04/19 07:46:46;;;;;;;7.07;3.80;;;;;;;;;;5052593;28;20444;-72
2022/04/19 07:49:12;;;;;;;4.93;4.23;;;;;;;;;;5052540;28;20215;-71
2022/04/19 07:51:38;;;;;;;7.87;3.93;;;;;;;;;;5052127;28;20885;-73
2022/04/19 07:54:04;;;;;;;4.57;4.17;;;;;;;;;;5052290;28;20456;-73
2022/04/19 07:56:30;;;;;;;5.80;3.53;;;;;;;;;;5055653;28;20412;-74
2022/04/19 07:58:56;;;;;;;5.80;4.17;;;;;;;;;;5056079;28;20408;-71
2022/04/19 08:01:23;;;;;;;4.70;3.70;;;;;;;;;;5055658;28;20428;-72
2022/04/19 08:03:49;;;;;;;5.97;3.40;;;;;;;;;;5056270;28;20427;-74
2022/04/19 08:06:16;;;;;;;3.80;3.20;;;;;;;;;;5055929;28;20876;-73
2022/04/19 08:08:45;;;;;;;5.13;3.80;;;;;;;;;;5056027;28;20466;-72
2022/04/19 08:11:11;;;;;;;4.10;3.70;;;;;;;;;;5055714;28;20464;-73
2022/04/19 08:13:37;;;;;;;5.13;3.67;;;;;;;;;;5056002;28;20903;-73
2022/04/19 08:16:03;;;;;;;4.80;3.27;;;;;;;;;;5056302;28;20526;-74
2022/04/19 08:18:29;;;;;;;4.40;3.50;;;;;;;;;;5055545;28;20433;-72
2022/04/19 08:20:55;;;;;;;3.87;3.57;;;;;;;;;;5055531;28;20856;-73
2022/04/19 08:23:21;;;;;;;6.97;3.60;;;;;;;;;;5055755;28;20459;-72
2022/04/19 08:25:47;;;;;;;6.20;4.10;;;;;;;;;;5055694;28;20492;-72
2022/04/19 08:28:13;;;;;;;5.50;3.33;;;;;;;;;;5055604;28;20444;-73
2022/04/19 08:30:39;;;;;;;4.20;3.63;;;;;;;;;;5055138;28;20816;-73
2022/04/19 08:33:05;;;;;;;5.20;3.57;;;;;;;;;;5055405;28;20439;-74
2022/04/19 08:35:31;;;;;;;4.93;3.93;;;;;;;;;;5055731;28;20416;-72
2022/04/19 08:37:57;;;;;;;6.90;4.53;;;;;;;;;;5055473;28;20433;-74
2022/04/19 08:40:25;;;;;;;7.60;5.47;;;;;;;;;;5055000;28;20466;-73
2022/04/19 08:42:53;;;;;;;8.73;6.23;;;;;;;;;;5055208;28;20424;-72
2022/04/19 08:45:20;;;;;;;7.23;5.70;;;;;;;;;;5055308;28;20411;-70
2022/04/19 08:47:47;;;;;;;8.97;6.30;;;;;;;;;;5055127;28;20537;-73
2022/04/19 08:50:14;;;;;;;6.50;5.40;;;;;;;;;;5054793;28;20482;-73
2022/04/19 08:52:40;;;;;;;7.13;6.03;;;;;;;;;;5054740;28;20828;-70
2022/04/19 08:57:52;;;;;;;5.53;4.80;;;;;;;;;;5055341;28;20919;-72
2022/04/19 09:00:22;;;;;;;7.07;5.40;;;;;;;;;;5054613;28;20408;-72
2022/04/19 09:02:48;;;;;;;6.13;5.53;;;;;;;;;;5054758;28;20424;-70
2022/04/19 09:05:14;;;;;;;7.47;5.90;;;;;;;;;;5054894;28;20396;-72
2022/04/19 09:07:40;;;;;;;8.03;6.13;;;;;;;;;;5053905;28;20947;-72
2022/04/19 09:10:07;;;;;;;7.83;6.00;;;;;;;;;;5054771;28;20443;-72
2022/04/19 09:12:33;;;;;;;6.47;5.80;;;;;;;;;;5053182;28;20513;-72
2022/04/19 09:15:00;;;;;;;5.80;5.20;;;;;;;;;;5053322;28;20558;-71
2022/04/19 09:17:33;;;;;;;6.70;5.33;;;;;;;;;;5054668;28;20752;-71
2022/04/19 09:20:09;;;;;;;7.73;5.40;;;;;;;;;;5054850;28;20401;-70
2022/04/19 09:22:36;;;;;;;6.50;5.43;;;;;;;;;;5054462;28;20427;-73
2022/04/19 09:25:19;;;;;;;8.90;5.60;;;;;;;;;;5054666;28;20419;-73
2022/04/19 09:27:46;;;;;;;6.63;5.73;;;;;;;;;;5054629;28;20412;-71
2022/04/19 09:30:18;;;;;;;8.23;5.60;;;;;;;;;;5054225;28;20408;-72
2022/04/19 09:33:02;;;;;;;7.57;5.80;;;;;;;;;;5054228;28;20420;-72
2022/04/19 09:35:32;;;;;;;7.23;5.50;;;;;;;;;;5054403;28;20405;-71
2022/04/19 09:37:59;;;;;;;5.97;5.33;;;;;;;;;;5054457;28;20427;-73
2022/04/19 09:40:28;;;;;;;6.60;5.60;;;;;;;;;;5053819;28;20428;-71
2022/04/19 09:42:55;;;;;;;5.87;5.27;;;;;;;;;;5053986;28;20433;-72
2022/04/19 09:45:21;;;;;;;7.00;6.07;;;;;;;;;;5052625;28;20979;-73
2022/04/19 09:47:51;;;;;;;7.93;6.00;;;;;;;;;;5053829;28;20459;-71
2022/04/19 09:50:17;;;;;;;8.50;7.13;;;;;;;;;;5053676;28;20397;-72
2022/04/19 09:52:50;;;;;;;6.77;5.57;;;;;;;;;;5053725;28;20424;-71
2022/04/19 09:55:16;;;;;;;6.50;5.70;;;;;;;;;;5053762;28;20412;-73
2022/04/19 09:57:48;;;;;;;7.33;6.53;;;;;;;;;;5053913;28;20621;-72
2022/04/19 10:00:16;;;;;;;9.73;6.43;;;;;;;;;;5053737;28;20451;-72
2022/04/19 10:08:21;;;;;;;6.37;5.77;;;;;;;;;;5054077;28;20404;-73
2022/04/19 10:10:52;;;;;;;7.60;6.30;;;;;;;;;;5053392;28;20432;-74
2022/04/19 10:13:19;;;;;;;7.97;6.30;;;;;;;;;;5053681;28;20460;-73
2022/04/19 10:15:45;;;;;;;8.00;5.50;;;;;;;;;;5053600;28;20769;-72
2022/04/19 10:18:12;;;;;;;8.00;6.80;;;;;;;;;;5052348;28;20472;-71
2022/04/19 10:20:54;;;;;;;7.00;4.90;;;;;;;;;;5053167;28;20421;-71
2022/04/19 10:23:20;;;;;;;6.53;5.70;;;;;;;;;;5053646;28;20410;-71
2022/04/19 10:25:48;;;;;;;8.23;5.40;;;;;;;;;;5053506;28;20483;-71
2022/04/19 10:28:15;;;;;;;6.60;5.80;;;;;;;;;;5053356;28;20419;-71
2022/04/19 10:30:51;;;;;;;5.80;4.93;;;;;;;;;;5053063;28;20410;-73
2022/04/19 10:33:35;;;;;;;7.50;4.50;;;;;;;;;;5053462;28;20532;-73
2022/04/19 10:36:17;;;;;;;7.33;5.33;;;;;;;;;;5053551;28;20404;-72
2022/04/19 10:38:45;;;;;;;6.80;5.73;;;;;;;;;;5053386;28;20756;-74
2022/04/19 10:41:11;;;;;;;7.20;6.23;;;;;;;;;;5053010;28;20773;-73
2022/04/19 10:43:37;;;;;;;9.00;6.90;;;;;;;;;;5051889;28;20419;-72
2022/04/19 10:46:21;;;;;;;9.40;7.20;;;;;;;;;;5053204;28;20424;-72
2022/04/19 10:49:06;;;;;;;8.37;6.07;;;;;;;;;;5053050;28;20503;-71
2022/04/19 10:51:32;;;;;;;9.00;6.60;;;;;;;;;;5052606;28;20436;-72
2022/04/19 10:53:58;;;;;;;9.17;6.60;;;;;;;;;;5052876;28;20465;-71
2022/04/19 10:56:24;;;;;;;8.00;6.80;;;;;;;;;;5053061;28;20769;-70
2022/04/19 10:58:50;;;;;;;7.47;6.67;;;;;;;;;;5053029;28;20822;-73
2022/04/19 11:01:30;;;;;;;8.67;7.07;;;;;;;;;;5051424;28;20436;-71
2022/04/19 11:03:56;;;;;;;7.70;6.80;;;;;;;;;;5052883;28;20420;-70
2022/04/19 11:06:36;;;;;;;8.10;7.07;;;;;;;;;;5052870;28;20946;-72
2022/04/19 11:09:09;;;;;;;7.73;6.97;;;;;;;;;;5052791;28;20760;-72
2022/04/19 11:11:52;;;;;;;7.50;6.70;;;;;;;;;;5052483;28;20438;-73
2022/04/19 11:14:19;;;;;;;7.33;6.53;;;;;;;;;;5052663;28;20947;-71
2022/04/19 11:16:48;;;;;;;9.43;6.50;;;;;;;;;;5052681;28;20501;-72
2022/04/19 11:19:16;;;;;;;7.20;6.20;;;;;;;;;;5052757;28;20412;-72
2022/04/19 11:22:01;;;;;;;8.23;6.13;;;;;;;;;;5052346;28;20421;-74
2022/04/19 11:24:46;;;;;;;8.30;7.37;;;;;;;;;;5053020;28;20411;-73
2022/04/19 11:27:12;;;;;;;8.00;7.20;;;;;;;;;;5052897;28;20866;-71
2022/04/19 11:29:47;;;;;;;8.40;7.27;;;;;;;;;;5053171;28;20410;-72
2022/04/19 11:32:19;;;;;;;10.07;7.03;;;;;;;;;;5056209;28;20489;-71
2022/04/19 11:34:58;;;;;;;17.13;8.70;;;;;;;;;;5056786;28;20896;-71
2022/04/19 11:37:25;;;;;;;15.83;8.53;;;;;;;;;;5056730;28;20427;-70
2022/04/19 11:48:09;;;;;;;6.03;5.43;;;;;;;;;;5056683;28;20416;-72
2022/04/19 11:50:36;;;;;;;6.20;5.60;;;;;;;;;;5055913;28;20530;-72
2022/04/19 11:53:02;;;;;;;7.83;5.70;;;;;;;;;;5056397;28;20427;-73
2022/04/19 11:55:28;;;;;;;6.30;4.90;;;;;;;;;;5056551;28;20404;-73
2022/04/19 11:58:10;;;;;;;7.07;5.70;;;;;;;;;;5056237;28;20415;-72
2022/04/19 12:00:36;;;;;;;6.87;4.93;;;;;;;;;;5055751;28;20415;-72
2022/04/19 12:03:22;;;;;;;5.93;4.77;;;;;;;;;;5056146;28;20507;-72
2022/04/19 12:05:48;;;;;;;5.33;4.43;;;;;;;;;;5056033;28;20766;-73
2022/04/19 12:08:29;;;;;;;6.63;5.93;;;;;;;;;;5055881;28;20412;-72
2022/04/19 12:10:55;;;;;;;5.50;4.70;;;;;;;;;;5055874;28;20408;-73
2022/04/19 12:13:21;;;;;;;5.87;5.20;;;;;;;;;;5056305;28;20465;-72
2022/04/19 12:15:47;;;;;;;5.63;5.03;;;;;;;;;;5056830;28;20408;-72
2022/04/19 12:18:28;;;;;;;6.07;5.00;;;;;;;;;;5058555;28;20428;-72
2022/04/19 12:20:54;;;;;;;6.63;4.47;;;;;;;;;;5056280;28;20400;-71
2022/04/19 12:23:21;;;;;;;5.57;4.97;;;;;;;;;;5055871;28;20470;-74
2022/04/19 12:26:04;;;;;;;4.93;4.43;;;;;;;;;;5054487;28;20420;-72
2022/04/19 12:28:46;;;;;;;4.90;4.40;;;;;;;;;;5055543;28;20415;-72
2022/04/19 12:31:34;;;;;;;5.13;4.63;;;;;;;;;;5055222;28;20436;-71
2022/04/19 12:34:00;;;;;;;5.97;4.30;;;;;;;;;;5055464;28;20491;-71
2022/04/19 12:36:26;;;;;;;9.23;4.10;;;;;;;;;;5055338;28;20423;-73
2022/04/19 12:39:00;;;;;;;4.87;4.20;;;;;;;;;;5055701;28;20766;-71
2022/04/19 12:41:39;;;;;;;4.60;4.00;;;;;;;;;;5055118;28;20943;-73
2022/04/19 12:44:07;;;;;;;4.27;3.87;;;;;;;;;;5055484;28;20411;-73
2022/04/19 12:46:33;;;;;;;3.53;3.23;;;;;;;;;;5055432;28;20765;-70
2022/04/19 12:48:59;;;;;;;3.10;2.67;;;;;;;;;;5055425;28;20481;-72
2022/04/19 12:51:25;;;;;;;3.23;2.93;;;;;;;;;;5054895;28;20991;-73
2022/04/19 12:54:04;;;;;;;3.27;2.97;;;;;;;;;;5055145;28;20509;-71
2022/04/19 12:56:39;;;;;;;3.53;2.83;;;;;;;;;;5055082;28;20409;-72
2022/04/19 12:59:05;;;;;;;4.50;3.50;;;;;;;;;;5055030;28;20839;-72
2022/04/19 13:01:31;;;;;;;5.00;3.37;;;;;;;;;;5054577;28;20469;-72
2022/04/19 13:03:57;;;;;;;4.10;3.23;;;;;;;;;;5054970;28;20495;-71
2022/04/19 13:14:36;;;;;;;3.30;3.00;;;;;;;;;;5054596;28;20479;-72
2022/04/19 13:17:03;;;;;;;5.40;3.70;;;;;;;;;;5054847;28;20412;-71
2022/04/19 13:19:29;;;;;;;3.33;3.03;;;;;;;;;;5054868;28;20440;-71
2022/04/19 13:21:55;;;;;;;7.10;4.30;;;;;;;;;;5053156;28;20444;-71
2022/04/19 13:24:21;;;;;;;5.03;3.90;;;;;;;;;;5054652;28;20417;-71
2022/04/19 13:26:47;;;;;;;3.53;3.20;;;;;;;;;;5054496;28;20420;-73
2022/04/19 13:29:13;;;;;;;6.27;3.47;;;;;;;;;;5054455;28;20428;-73
2022/04/19 13:31:39;;;;;;;4.50;4.10;;;;;;;;;;5053983;28;20435;-71
2022/04/19 13:34:05;;;;;;;5.43;4.90;;;;;;;;;;5054452;28;20521;-72
2022/04/19 13:36:31;;;;;;;6.10;4.97;;;;;;;;;;5054576;28;20409;-71
2022/04/19 13:38:57;;;;;;;5.80;4.77;;;;;;;;;;5053070;28;20935;-70
2022/04/19 13:41:23;;;;;;;4.03;3.63;;;;;;;;;;5053971;28;20437;-72
2022/04/19 13:43:51;;;;;;;6.00;5.40;;;;;;;;;;5054428;28;20478;-72
2022/04/19 13:46:17;;;;;;;6.00;5.40;;;;;;;;;;5054270;28;20416;-71
2022/04/19 13:48:42;;;;;;;6.67;6.07;;;;;;;;;;5054149;28;20416;-71
2022/04/19 13:51:08;;;;;;;5.83;5.27;;;;;;;;;;5053678;28;20836;-72
2022/04/19 13:53:34;;;;;;;5.60;5.10;;;;;;;;;;5053464;28;20499;-71
2022/04/19 13:56:00;;;;;;;7.90;4.40;;;;;;;;;;5054143;28;20415;-72
2022/04/19 13:58:26;;;;;;;5.80;4.47;;;;;;;;;;5053891;28;20897;-72
2022/04/19 14:00:52;;;;;;;5.93;4.13;;;;;;;;;;5053448;28;20431;-71
2022/04/19 14:03:18;;;;;;;6.90;4.90;;;;;;;;;;5052426;28;20430;-71
2022/04/19 14:05:44;;;;;;;8.20;5.40;;;;;;;;;;5053662;28;20445;-72
2022/04/19 14:08:11;;;;;;;5.83;4.87;;;;;;;;;;5053666;28;20417;-71
2022/04/19 14:10:37;;;;;;;5.73;4.93;;;;;;;;;;5053242;28;20489;-71
2022/04/19 14:13:03;;;;;;;5.20;4.57;;;;;;;;;;5053422;28;20515;-72
2022/04/19 14:15:29;;;;;;;5.83;5.23;;;;;;;;;;5053284;28;20886;-71
2022/04/19 14:17:55;;;;;;;7.70;5.33;;;;;;;;;;5053261;28;20416;-73
2022/04/19 14:20:21;;;;;;;6.60;4.23;;;;;;;;;;5053131;28;20412;-73
2022/04/19 14:22:47;;;;;;;7.70;4.73;;;;;;;;;;5053364;28;20424;-73
2022/04/19 14:25:14;;;;;;;6.33;4.43;;;;;;;;;;5053287;28;20442;-72
2022/04/19 14:27:40;;;;;;;5.70;3.97;;;;;;;;;;5052227;28;20420;-71
2022/04/19 14:35:35;;;;;;;5.70;4.57;;;;;;;;;;5053538;28;20435;-72
2022/04/19 14:38:01;;;;;;;5.37;4.30;;;;;;;;;;5053342;28;20413;-72
2022/04/19 14:40:27;;;;;;;5.23;4.53;;;;;;;;;;5052895;28;20424;-72
2022/04/19 14:42:53;;;;;;;5.07;4.57;;;;;;;;;;5053224;28;20771;-71
2022/04/19 14:45:19;;;;;;;5.37;3.90;;;;;;;;;;5053249;28;20409;-71
2022/04/19 14:47:45;;;;;;;5.10;4.50;;;;;;;;;;5053270;28;20417;-69
2022/04/19 14:50:11;;;;;;;5.20;4.03;;;;;;;;;;5052923;28;20415;-70
2022/04/19 14:52:38;;;;;;;5.20;4.47;;;;;;;;;;5053096;28;20871;-71
2022/04/19 14:55:04;;;;;;;5.37;3.60;;;;;;;;;;5052959;28;20538;-71
2022/04/19 14:57:30;;;;;;;4.47;4.07;;;;;;;;;;5052905;28;20764;-70
2022/04/19 14:59:56;;;;;;;6.40;3.43;;;;;;;;;;5052977;28;20434;-70
2022/04/19 15:02:22;;;;;;;6.67;4.20;;;;;;;;;;5051432;28;20775;-72
2022/04/19 15:04:48;;;;;;;5.50;3.77;;;;;;;;;;5053782;28;20408;-71
2022/04/19 15:07:14;;;;;;;6.60;4.40;;;;;;;;;;5057105;28;20412;-71
2022/04/19 15:09:40;;;;;;;5.40;4.27;;;;;;;;;;5056711;28;20424;-70
2022/04/19 15:12:08;;;;;;;4.90;3.23;;;;;;;;;;5056656;28;20873;-71
2022/04/19 15:14:35;;;;;;;4.10;3.63;;;;;;;;;;5055669;28;21000;-71
2022/04/19 15:17:01;;;;;;;5.57;4.60;;;;;;;;;;5056956;28;20408;-70
2022/04/19 15:19:27;;;;;;;5.27;4.73;;;;;;;;;;5056991;28;20444;-71
2022/04/19 15:21:54;;;;;;;6.97;3.77;;;;;;;;;;5056481;28;20839;-72
2022/04/19 15:24:22;;;;;;;6.47;3.80;;;;;;;;;;5056862;28;20420;-72
2022/04/19 15:26:48;;;;;;;5.60;3.97;;;;;;;;;;5056684;28;20448;-72
2022/04/19 15:29:14;;;;;;;5.43;3.40;;;;;;;;;;5056762;28;20444;-72
2022/04/19 15:31:40;;;;;;;4.90;3.57;;;;;;;;;;5056284;28;20434;-72
2022/04/19 15:34:06;;;;;;;3.70;3.40;;;;;;;;;;5056413;28;20459;-71